Cortland, OH (44410)

11:10 AM EDT on May 27, 2015 (GMT -0400)
OHDOT | | Change Station
CLOSE
Current Station
Personal Weather Station
Location: Cortland, OH
Elevation: 987 ft
Nearby Weather Stations

Elev 987 ft 41.32 °N, 80.73 °W | Updated 30 minutes ago

Mostly Cloudy
Mostly Cloudy
73 °F
Feels Like 76 °F
N
6
Wind Variable Wind from South
Gusts 13.0 mph

Today
High -- | Low -- °F
--% Chance of Precip.
Yesterday
High -- | Low -- °F
Precip. -- in
5:54 AM 8:45 PM
Waxing Gibbous, 68% visible
Pressure 30.09 in
Visibility 10.0 miles
Clouds Mostly Cloudy 2200 ft
Mostly Cloudy 24000 ft
Heat Index 76 °F
Dew Point 62 °F
Humidity 67%
Rainfall in
Snow Depth Not available.
UV 4 out of 12
Pollen 8.80 out of 12
Air Quality Not available.
Flu Activity Local Activity
METAR KYNG 271451Z 22007KT 10SM BKN022 BKN240 22/17 A3011 RMK AO2 SLP188 T02220172 51007

More Conditions Fewer Conditions

Pressure 30.09 in
Visibility 10.0 miles
Clouds Mostly Cloudy 2200 ft
Mostly Cloudy 24000 ft
Heat Index 76 °F
Dew Point 62 °F
Humidity 67%
Rainfall in
Snow Depth Not available.
UV 4 out of 12
Pollen 8.80 out of 12
Air Quality Not available.
Flu Activity Local Activity
METAR KYNG 271451Z 22007KT 10SM BKN022 BKN240 22/17 A3011 RMK AO2 SLP188 T02220172 51007

More Conditions Fewer Conditions

10-Day Weather Forecast

Almanac

Astronomy

May. 27, 2015 Rise Set
Actual Time
Civil Twilight
Nautical Twilight
Astronomical Twilight
Moon
Length of Visible Light
Length of Day
Tomorrow will be .
, % of the Moon is Illuminated

Today's Extremes

State Highs State Lows

Community

WunderPhotos

Upload Photos

1,824,695 photos uploaded!

WunderBlogs® & News

Nearby

Air Quality

  Air Quality AQ Index Pollutant
Not available.

Snow Depth

Station Depth Elevation

Earthquake Activity

City Distance Mag. Time & Date
Minimum magnitude displayed is 2.5.

Coastal Water Temperatures

Place Temperature

Stations

Nearby Weather Stations

Station Location Temp. Windchill Dew Point Humidity Wind Precip. Elev Updated Type